sensor_id;sensor_type;location;lat;lon;timestamp;pressure;altitude;pressure_sealevel;temperature;humidity
48810;BME280;40070;47.322;18.784;2023-11-19T00:00:04;1008.84;;;8.98;51.67
48810;BME280;40070;47.322;18.784;2023-11-19T00:02:07;1008.94;;;9.00;51.93
48810;BME280;40070;47.322;18.784;2023-11-19T00:04:09;1008.93;;;9.13;51.32
48810;BME280;40070;47.322;18.784;2023-11-19T00:06:12;1008.85;;;9.04;51.25
48810;BME280;40070;47.322;18.784;2023-11-19T00:08:14;1008.78;;;9.21;51.69
48810;BME280;40070;47.322;18.784;2023-11-19T00:10:17;1008.70;;;9.14;52.28
48810;BME280;40070;47.322;18.784;2023-11-19T00:12:19;1008.74;;;9.02;51.46
48810;BME280;40070;47.322;18.784;2023-11-19T00:14:22;1008.78;;;8.91;52.20
48810;BME280;40070;47.322;18.784;2023-11-19T00:16:24;1008.84;;;10.07;51.44
48810;BME280;40070;47.322;18.784;2023-11-19T00:18:27;1008.82;;;11.12;47.20
48810;BME280;40070;47.322;18.784;2023-11-19T00:20:29;1008.92;;;9.04;49.45
48810;BME280;40070;47.322;18.784;2023-11-19T00:22:32;1009.00;;;8.78;51.78
48810;BME280;40070;47.322;18.784;2023-11-19T00:24:35;1008.98;;;8.64;51.95
48810;BME280;40070;47.322;18.784;2023-11-19T00:26:37;1009.08;;;8.49;52.52
48810;BME280;40070;47.322;18.784;2023-11-19T00:28:40;1009.09;;;8.90;51.87
48810;BME280;40070;47.322;18.784;2023-11-19T00:30:42;1009.05;;;8.83;52.53
48810;BME280;40070;47.322;18.784;2023-11-19T00:32:45;1009.05;;;8.90;52.01
48810;BME280;40070;47.322;18.784;2023-11-19T00:34:47;1009.02;;;8.82;52.13
48810;BME280;40070;47.322;18.784;2023-11-19T00:36:49;1008.96;;;9.03;52.98
48810;BME280;40070;47.322;18.784;2023-11-19T00:38:52;1008.87;;;9.06;51.70
48810;BME280;40070;47.322;18.784;2023-11-19T00:40:54;1008.86;;;9.03;52.38
48810;BME280;40070;47.322;18.784;2023-11-19T00:42:57;1008.78;;;8.91;51.76
48810;BME280;40070;47.322;18.784;2023-11-19T00:44:59;1008.75;;;8.89;51.83
48810;BME280;40070;47.322;18.784;2023-11-19T00:47:02;1008.75;;;9.13;51.51
48810;BME280;40070;47.322;18.784;2023-11-19T00:49:05;1008.79;;;9.13;51.63
48810;BME280;40070;47.322;18.784;2023-11-19T00:51:07;1008.77;;;9.24;51.80
48810;BME280;40070;47.322;18.784;2023-11-19T00:53:10;1008.77;;;8.88;51.95
48810;BME280;40070;47.322;18.784;2023-11-19T00:55:12;1008.78;;;8.76;51.67
48810;BME280;40070;47.322;18.784;2023-11-19T00:57:15;1008.76;;;8.56;51.72
48810;BME280;40070;47.322;18.784;2023-11-19T00:59:17;1008.73;;;8.62;52.52
48810;BME280;40070;47.322;18.784;2023-11-19T01:01:20;1008.75;;;8.43;52.52
48810;BME280;40070;47.322;18.784;2023-11-19T01:03:22;1008.79;;;8.11;53.08
48810;BME280;40070;47.322;18.784;2023-11-19T01:05:25;1008.76;;;7.81;54.49
48810;BME280;40070;47.322;18.784;2023-11-19T01:07:27;1008.75;;;7.78;54.27
48810;BME280;40070;47.322;18.784;2023-11-19T01:09:32;1008.78;;;7.29;55.67
48810;BME280;40070;47.322;18.784;2023-11-19T01:11:35;1008.75;;;6.88;56.27
48810;BME280;40070;47.322;18.784;2023-11-19T01:13:37;1008.75;;;7.06;55.66
48810;BME280;40070;47.322;18.784;2023-11-19T01:15:40;1008.74;;;7.26;56.52
48810;BME280;40070;47.322;18.784;2023-11-19T01:17:42;1008.69;;;8.34;54.09
48810;BME280;40070;47.322;18.784;2023-11-19T01:19:45;1008.74;;;8.13;53.01
48810;BME280;40070;47.322;18.784;2023-11-19T01:21:47;1008.68;;;8.67;52.67
48810;BME280;40070;47.322;18.784;2023-11-19T01:23:50;1008.68;;;8.97;52.95
48810;BME280;40070;47.322;18.784;2023-11-19T01:25:52;1008.67;;;9.71;50.52
48810;BME280;40070;47.322;18.784;2023-11-19T01:27:55;1008.71;;;9.48;50.62
48810;BME280;40070;47.322;18.784;2023-11-19T01:29:57;1008.74;;;9.45;51.40
48810;BME280;40070;47.322;18.784;2023-11-19T01:32:00;1008.75;;;9.40;51.34
48810;BME280;40070;47.322;18.784;2023-11-19T01:34:02;1008.75;;;9.30;51.00
48810;BME280;40070;47.322;18.784;2023-11-19T01:36:05;1008.75;;;9.40;51.41
48810;BME280;40070;47.322;18.784;2023-11-19T01:38:08;1008.70;;;9.59;51.83
48810;BME280;40070;47.322;18.784;2023-11-19T01:40:10;1008.62;;;9.68;51.32
48810;BME280;40070;47.322;18.784;2023-11-19T01:42:13;1008.66;;;9.69;50.72
48810;BME280;40070;47.322;18.784;2023-11-19T01:44:16;1008.56;;;9.96;51.10
48810;BME280;40070;47.322;18.784;2023-11-19T01:46:18;1008.52;;;10.08;50.09
48810;BME280;40070;47.322;18.784;2023-11-19T01:48:20;1008.52;;;10.08;50.15
48810;BME280;40070;47.322;18.784;2023-11-19T01:50:23;1008.41;;;9.82;49.45
48810;BME280;40070;47.322;18.784;2023-11-19T01:52:26;1008.41;;;9.54;50.51
48810;BME280;40070;47.322;18.784;2023-11-19T01:54:29;1008.41;;;9.24;51.21
48810;BME280;40070;47.322;18.784;2023-11-19T01:56:32;1008.32;;;9.26;51.48
48810;BME280;40070;47.322;18.784;2023-11-19T01:58:37;1008.31;;;9.22;51.47
48810;BME280;40070;47.322;18.784;2023-11-19T02:00:40;1008.26;;;9.32;51.43
48810;BME280;40070;47.322;18.784;2023-11-19T02:02:43;1008.20;;;9.22;51.48
48810;BME280;40070;47.322;18.784;2023-11-19T02:04:47;1008.19;;;9.28;52.06
48810;BME280;40070;47.322;18.784;2023-11-19T02:06:50;1008.21;;;9.34;51.60
48810;BME280;40070;47.322;18.784;2023-11-19T02:08:53;1008.23;;;9.10;51.52
48810;BME280;40070;47.322;18.784;2023-11-19T02:10:56;1008.22;;;9.04;52.11
48810;BME280;40070;47.322;18.784;2023-11-19T02:12:59;1008.21;;;8.96;52.12
48810;BME280;40070;47.322;18.784;2023-11-19T02:15:02;1008.14;;;9.09;52.03
48810;BME280;40070;47.322;18.784;2023-11-19T02:17:05;1008.20;;;9.05;52.83
48810;BME280;40070;47.322;18.784;2023-11-19T02:19:07;1008.17;;;9.06;51.97
48810;BME280;40070;47.322;18.784;2023-11-19T02:21:10;1008.16;;;9.13;51.85
48810;BME280;40070;47.322;18.784;2023-11-19T02:23:13;1008.18;;;9.02;52.34
48810;BME280;40070;47.322;18.784;2023-11-19T02:25:29;1008.11;;;9.08;52.54
48810;BME280;40070;47.322;18.784;2023-11-19T02:28:02;1008.08;;;9.19;52.26
48810;BME280;40070;47.322;18.784;2023-11-19T02:30:02;1008.06;;;9.16;52.29
48810;BME280;40070;47.322;18.784;2023-11-19T02:32:05;1008.05;;;8.89;52.58
48810;BME280;40070;47.322;18.784;2023-11-19T02:34:07;1008.08;;;8.87;53.16
48810;BME280;40070;47.322;18.784;2023-11-19T02:36:12;1008.15;;;8.56;52.55
48810;BME280;40070;47.322;18.784;2023-11-19T02:38:14;1008.21;;;8.33;53.26
48810;BME280;40070;47.322;18.784;2023-11-19T02:40:17;1008.22;;;8.04;52.84
48810;BME280;40070;47.322;18.784;2023-11-19T02:42:20;1008.12;;;8.46;53.60
48810;BME280;40070;47.322;18.784;2023-11-19T02:44:22;1008.09;;;8.75;53.08
48810;BME280;40070;47.322;18.784;2023-11-19T02:46:24;1007.96;;;8.84;52.80
48810;BME280;40070;47.322;18.784;2023-11-19T02:48:27;1007.88;;;8.89;52.39
48810;BME280;40070;47.322;18.784;2023-11-19T02:50:30;1007.89;;;9.00;52.38
48810;BME280;40070;47.322;18.784;2023-11-19T02:52:32;1007.91;;;8.97;51.19
48810;BME280;40070;47.322;18.784;2023-11-19T02:54:35;1007.88;;;8.83;52.07
48810;BME280;40070;47.322;18.784;2023-11-19T02:56:37;1007.88;;;8.13;52.58
48810;BME280;40070;47.322;18.784;2023-11-19T02:58:40;1007.86;;;7.88;53.77
48810;BME280;40070;47.322;18.784;2023-11-19T03:00:42;1007.84;;;8.18;54.10
48810;BME280;40070;47.322;18.784;2023-11-19T03:02:44;1007.86;;;8.08;53.84
48810;BME280;40070;47.322;18.784;2023-11-19T03:04:47;1007.90;;;8.12;53.80
48810;BME280;40070;47.322;18.784;2023-11-19T03:06:50;1007.87;;;8.09;54.37
48810;BME280;40070;47.322;18.784;2023-11-19T03:08:52;1007.80;;;8.38;54.29
48810;BME280;40070;47.322;18.784;2023-11-19T03:10:55;1007.71;;;8.56;54.11
48810;BME280;40070;47.322;18.784;2023-11-19T03:12:57;1007.58;;;8.49;53.86
48810;BME280;40070;47.322;18.784;2023-11-19T03:14:59;1007.56;;;8.30;53.59
48810;BME280;40070;47.322;18.784;2023-11-19T03:17:02;1007.56;;;8.50;54.23
48810;BME280;40070;47.322;18.784;2023-11-19T03:19:05;1007.52;;;8.59;53.85
48810;BME280;40070;47.322;18.784;2023-11-19T03:21:07;1007.52;;;8.77;53.86
48810;BME280;40070;47.322;18.784;2023-11-19T03:23:10;1007.55;;;8.57;54.21
48810;BME280;40070;47.322;18.784;2023-11-19T03:25:12;1007.67;;;8.41;54.26
48810;BME280;40070;47.322;18.784;2023-11-19T03:27:15;1007.64;;;8.16;53.53
48810;BME280;40070;47.322;18.784;2023-11-19T03:29:17;1007.64;;;8.05;54.11
48810;BME280;40070;47.322;18.784;2023-11-19T03:31:20;1007.58;;;8.14;54.41
48810;BME280;40070;47.322;18.784;2023-11-19T03:33:22;1007.58;;;8.28;54.09
48810;BME280;40070;47.322;18.784;2023-11-19T03:35:25;1007.62;;;8.23;53.84
48810;BME280;40070;47.322;18.784;2023-11-19T03:37:27;1007.60;;;8.34;54.30
48810;BME280;40070;47.322;18.784;2023-11-19T03:39:29;1007.42;;;8.60;54.20
48810;BME280;40070;47.322;18.784;2023-11-19T03:41:32;1007.34;;;8.56;53.53
48810;BME280;40070;47.322;18.784;2023-11-19T03:43:34;1007.30;;;8.72;53.73
48810;BME280;40070;47.322;18.784;2023-11-19T03:45:37;1007.27;;;8.51;53.14
48810;BME280;40070;47.322;18.784;2023-11-19T03:47:39;1007.27;;;8.47;53.43
48810;BME280;40070;47.322;18.784;2023-11-19T03:49:42;1007.21;;;8.49;53.20
48810;BME280;40070;47.322;18.784;2023-11-19T03:51:44;1007.12;;;8.22;53.81
48810;BME280;40070;47.322;18.784;2023-11-19T03:53:47;1007.12;;;8.38;54.58
48810;BME280;40070;47.322;18.784;2023-11-19T03:55:49;1007.12;;;8.38;54.78
48810;BME280;40070;47.322;18.784;2023-11-19T03:57:52;1007.06;;;8.71;54.95
48810;BME280;40070;47.322;18.784;2023-11-19T03:59:54;1007.06;;;8.92;53.91
48810;BME280;40070;47.322;18.784;2023-11-19T04:01:57;1007.03;;;8.37;53.74
48810;BME280;40070;47.322;18.784;2023-11-19T04:03:59;1006.98;;;8.33;54.31
48810;BME280;40070;47.322;18.784;2023-11-19T04:06:02;1006.92;;;8.36;53.31
48810;BME280;40070;47.322;18.784;2023-11-19T04:08:04;1006.92;;;8.17;54.12
48810;BME280;40070;47.322;18.784;2023-11-19T04:10:07;1006.89;;;8.28;53.43
48810;BME280;40070;47.322;18.784;2023-11-19T04:12:10;1006.83;;;8.16;53.56
48810;BME280;40070;47.322;18.784;2023-11-19T04:14:15;1006.80;;;8.21;53.87
48810;BME280;40070;47.322;18.784;2023-11-19T04:16:17;1006.80;;;8.31;54.61
48810;BME280;40070;47.322;18.784;2023-11-19T04:18:20;1006.80;;;8.45;54.08
48810;BME280;40070;47.322;18.784;2023-11-19T04:20:22;1006.75;;;8.35;53.32
48810;BME280;40070;47.322;18.784;2023-11-19T04:22:25;1006.72;;;8.19;53.47
48810;BME280;40070;47.322;18.784;2023-11-19T04:24:27;1006.76;;;8.01;53.97
48810;BME280;40070;47.322;18.784;2023-11-19T04:26:30;1006.86;;;8.03;53.73
48810;BME280;40070;47.322;18.784;2023-11-19T04:28:32;1006.87;;;7.97;53.32
48810;BME280;40070;47.322;18.784;2023-11-19T04:30:35;1006.79;;;8.07;54.00
48810;BME280;40070;47.322;18.784;2023-11-19T04:32:37;1006.70;;;8.34;53.62
48810;BME280;40070;47.322;18.784;2023-11-19T04:34:40;1006.64;;;8.32;52.85
48810;BME280;40070;47.322;18.784;2023-11-19T04:36:42;1006.62;;;8.17;53.15
48810;BME280;40070;47.322;18.784;2023-11-19T04:38:45;1006.61;;;8.19;53.83
48810;BME280;40070;47.322;18.784;2023-11-19T04:40:48;1006.64;;;7.35;56.19
48810;BME280;40070;47.322;18.784;2023-11-19T04:42:50;1006.74;;;7.85;54.51
48810;BME280;40070;47.322;18.784;2023-11-19T04:44:53;1006.82;;;7.85;53.36
48810;BME280;40070;47.322;18.784;2023-11-19T04:46:55;1006.89;;;7.75;53.72
48810;BME280;40070;47.322;18.784;2023-11-19T04:48:58;1006.86;;;7.66;53.63
48810;BME280;40070;47.322;18.784;2023-11-19T04:51:00;1006.85;;;7.51;54.83
48810;BME280;40070;47.322;18.784;2023-11-19T04:53:02;1006.91;;;7.07;55.77
48810;BME280;40070;47.322;18.784;2023-11-19T04:55:05;1006.89;;;7.18;55.37
48810;BME280;40070;47.322;18.784;2023-11-19T04:57:08;1006.93;;;7.17;54.97
48810;BME280;40070;47.322;18.784;2023-11-19T04:59:10;1006.88;;;7.55;54.85
48810;BME280;40070;47.322;18.784;2023-11-19T05:01:13;1006.84;;;7.48;55.42
48810;BME280;40070;47.322;18.784;2023-11-19T05:03:16;1006.83;;;7.41;54.97
48810;BME280;40070;47.322;18.784;2023-11-19T05:05:18;1006.84;;;7.25;55.09
48810;BME280;40070;47.322;18.784;2023-11-19T05:07:21;1006.82;;;7.74;55.74
48810;BME280;40070;47.322;18.784;2023-11-19T05:09:23;1006.81;;;7.70;54.11
48810;BME280;40070;47.322;18.784;2023-11-19T05:11:26;1006.80;;;7.83;54.84
48810;BME280;40070;47.322;18.784;2023-11-19T05:13:28;1006.83;;;8.00;54.91
48810;BME280;40070;47.322;18.784;2023-11-19T05:15:31;1006.85;;;7.83;54.55
48810;BME280;40070;47.322;18.784;2023-11-19T05:17:33;1006.96;;;7.61;55.18
48810;BME280;40070;47.322;18.784;2023-11-19T05:19:36;1007.04;;;7.64;55.38
48810;BME280;40070;47.322;18.784;2023-11-19T05:21:38;1007.09;;;7.70;55.44
48810;BME280;40070;47.322;18.784;2023-11-19T05:23:41;1007.05;;;7.63;55.81
48810;BME280;40070;47.322;18.784;2023-11-19T05:25:43;1006.96;;;7.89;54.94
48810;BME280;40070;47.322;18.784;2023-11-19T05:27:46;1006.85;;;8.08;55.12
48810;BME280;40070;47.322;18.784;2023-11-19T05:29:48;1006.87;;;7.93;54.82
48810;BME280;40070;47.322;18.784;2023-11-19T05:31:50;1006.94;;;7.45;55.88
48810;BME280;40070;47.322;18.784;2023-11-19T05:33:53;1006.89;;;8.28;53.61
48810;BME280;40070;47.322;18.784;2023-11-19T05:35:55;1006.84;;;8.58;52.49
48810;BME280;40070;47.322;18.784;2023-11-19T05:37:58;1006.82;;;10.42;50.94
48810;BME280;40070;47.322;18.784;2023-11-19T05:40:01;1006.81;;;10.61;45.58
48810;BME280;40070;47.322;18.784;2023-11-19T05:42:03;1006.91;;;7.90;59.02
48810;BME280;40070;47.322;18.784;2023-11-19T05:44:06;1006.93;;;5.27;61.34
48810;BME280;40070;47.322;18.784;2023-11-19T05:46:08;1006.96;;;4.10;63.95
48810;BME280;40070;47.322;18.784;2023-11-19T05:48:11;1006.92;;;3.47;66.27
48810;BME280;40070;47.322;18.784;2023-11-19T05:50:13;1006.89;;;3.16;67.49
48810;BME280;40070;47.322;18.784;2023-11-19T05:52:16;1006.93;;;3.05;68.54
48810;BME280;40070;47.322;18.784;2023-11-19T05:54:18;1006.93;;;2.94;69.19
48810;BME280;40070;47.322;18.784;2023-11-19T05:56:21;1006.94;;;2.91;69.51
48810;BME280;40070;47.322;18.784;2023-11-19T05:58:27;1006.99;;;2.73;70.27
48810;BME280;40070;47.322;18.784;2023-11-19T06:00:29;1007.05;;;2.85;70.38
48810;BME280;40070;47.322;18.784;2023-11-19T06:02:32;1007.00;;;2.88;70.49
48810;BME280;40070;47.322;18.784;2023-11-19T06:04:35;1006.87;;;2.77;70.92
48810;BME280;40070;47.322;18.784;2023-11-19T06:06:37;1006.82;;;2.66;71.20
48810;BME280;40070;47.322;18.784;2023-11-19T06:08:39;1006.84;;;2.45;71.60
48810;BME280;40070;47.322;18.784;2023-11-19T06:10:42;1006.88;;;2.59;70.87
48810;BME280;40070;47.322;18.784;2023-11-19T06:12:45;1006.81;;;2.47;71.12
48810;BME280;40070;47.322;18.784;2023-11-19T06:14:48;1006.84;;;2.60;70.71
48810;BME280;40070;47.322;18.784;2023-11-19T06:16:50;1006.85;;;2.76;70.29
48810;BME280;40070;47.322;18.784;2023-11-19T06:18:53;1006.89;;;2.83;70.30
48810;BME280;40070;47.322;18.784;2023-11-19T06:20:55;1006.85;;;2.93;70.12
48810;BME280;40070;47.322;18.784;2023-11-19T06:22:58;1006.82;;;2.80;70.67
48810;BME280;40070;47.322;18.784;2023-11-19T06:25:00;1006.81;;;2.73;70.92
48810;BME280;40070;47.322;18.784;2023-11-19T06:27:03;1006.78;;;2.72;71.18
48810;BME280;40070;47.322;18.784;2023-11-19T06:29:05;1006.76;;;2.67;71.63
48810;BME280;40070;47.322;18.784;2023-11-19T06:31:08;1006.67;;;2.79;71.52
48810;BME280;40070;47.322;18.784;2023-11-19T06:33:13;1006.67;;;2.77;71.66
48810;BME280;40070;47.322;18.784;2023-11-19T06:35:16;1006.73;;;2.97;71.60
48810;BME280;40070;47.322;18.784;2023-11-19T06:37:18;1006.77;;;3.13;71.15
48810;BME280;40070;47.322;18.784;2023-11-19T06:39:21;1006.71;;;3.25;70.92
48810;BME280;40070;47.322;18.784;2023-11-19T06:41:23;1006.68;;;3.21;71.34
48810;BME280;40070;47.322;18.784;2023-11-19T06:43:26;1006.65;;;3.34;71.15
48810;BME280;40070;47.322;18.784;2023-11-19T06:45:29;1006.59;;;3.46;70.63
48810;BME280;40070;47.322;18.784;2023-11-19T06:47:31;1006.58;;;3.48;70.51
48810;BME280;40070;47.322;18.784;2023-11-19T06:49:34;1006.60;;;3.44;70.91
48810;BME280;40070;47.322;18.784;2023-11-19T06:51:41;1006.59;;;3.46;71.01
48810;BME280;40070;47.322;18.784;2023-11-19T06:53:43;1006.55;;;3.65;70.84
48810;BME280;40070;47.322;18.784;2023-11-19T06:55:46;1006.50;;;3.80;70.12
48810;BME280;40070;47.322;18.784;2023-11-19T06:57:48;1006.41;;;3.81;69.82
48810;BME280;40070;47.322;18.784;2023-11-19T06:59:51;1006.34;;;3.68;70.53
48810;BME280;40070;47.322;18.784;2023-11-19T07:01:53;1006.28;;;3.81;70.25
48810;BME280;40070;47.322;18.784;2023-11-19T07:03:56;1006.25;;;3.92;69.78
48810;BME280;40070;47.322;18.784;2023-11-19T07:05:58;1006.30;;;3.79;70.30
48810;BME280;40070;47.322;18.784;2023-11-19T07:08:01;1006.32;;;4.05;69.15
48810;BME280;40070;47.322;18.784;2023-11-19T07:10:03;1006.35;;;3.81;69.86
48810;BME280;40070;47.322;18.784;2023-11-19T07:12:06;1006.27;;;4.01;69.46
48810;BME280;40070;47.322;18.784;2023-11-19T07:14:09;1006.26;;;3.93;69.69
48810;BME280;40070;47.322;18.784;2023-11-19T07:16:13;1006.25;;;3.70;70.45
48810;BME280;40070;47.322;18.784;2023-11-19T07:18:16;1006.16;;;3.79;70.34
48810;BME280;40070;47.322;18.784;2023-11-19T07:20:18;1006.16;;;3.83;70.62
48810;BME280;40070;47.322;18.784;2023-11-19T07:22:21;1006.24;;;3.87;70.72
48810;BME280;40070;47.322;18.784;2023-11-19T07:24:23;1006.32;;;3.67;70.99
48810;BME280;40070;47.322;18.784;2023-11-19T07:26:26;1006.38;;;3.82;70.30
48810;BME280;40070;47.322;18.784;2023-11-19T07:28:28;1006.38;;;3.87;70.08
48810;BME280;40070;47.322;18.784;2023-11-19T07:30:31;1006.41;;;4.04;69.88
48810;BME280;40070;47.322;18.784;2023-11-19T07:32:33;1006.41;;;4.10;69.71
48810;BME280;40070;47.322;18.784;2023-11-19T07:34:36;1006.42;;;4.10;69.94
48810;BME280;40070;47.322;18.784;2023-11-19T07:36:38;1006.42;;;4.07;70.18
48810;BME280;40070;47.322;18.784;2023-11-19T07:38:41;1006.46;;;4.08;70.33
48810;BME280;40070;47.322;18.784;2023-11-19T07:40:43;1006.46;;;4.06;70.73
48810;BME280;40070;47.322;18.784;2023-11-19T07:42:46;1006.55;;;4.22;69.90
48810;BME280;40070;47.322;18.784;2023-11-19T07:44:48;1006.56;;;4.32;69.74
48810;BME280;40070;47.322;18.784;2023-11-19T07:46:51;1006.58;;;4.18;69.95
48810;BME280;40070;47.322;18.784;2023-11-19T07:48:53;1006.64;;;4.23;69.83
48810;BME280;40070;47.322;18.784;2023-11-19T07:50:56;1006.67;;;4.16;70.24
48810;BME280;40070;47.322;18.784;2023-11-19T07:52:58;1006.69;;;4.29;70.07
48810;BME280;40070;47.322;18.784;2023-11-19T07:55:01;1006.71;;;4.50;69.26
48810;BME280;40070;47.322;18.784;2023-11-19T07:57:03;1006.71;;;4.55;69.04
48810;BME280;40070;47.322;18.784;2023-11-19T07:59:06;1006.66;;;4.38;69.39
48810;BME280;40070;47.322;18.784;2023-11-19T08:01:08;1006.64;;;4.28;69.97
48810;BME280;40070;47.322;18.784;2023-11-19T08:03:11;1006.65;;;4.21;69.83
48810;BME280;40070;47.322;18.784;2023-11-19T08:05:13;1006.58;;;4.41;69.64
48810;BME280;40070;47.322;18.784;2023-11-19T08:07:16;1006.55;;;4.51;69.02
48810;BME280;40070;47.322;18.784;2023-11-19T08:09:18;1006.49;;;4.47;69.04
48810;BME280;40070;47.322;18.784;2023-11-19T08:11:21;1006.45;;;4.32;69.39
48810;BME280;40070;47.322;18.784;2023-11-19T08:13:23;1006.40;;;4.43;69.20
48810;BME280;40070;47.322;18.784;2023-11-19T08:15:26;1006.35;;;4.39;69.36
48810;BME280;40070;47.322;18.784;2023-11-19T08:17:28;1006.29;;;4.54;69.29
48810;BME280;40070;47.322;18.784;2023-11-19T08:19:31;1006.27;;;4.69;68.95
48810;BME280;40070;47.322;18.784;2023-11-19T08:21:33;1006.22;;;4.43;69.14
48810;BME280;40070;47.322;18.784;2023-11-19T08:23:36;1006.12;;;4.26;70.08
48810;BME280;40070;47.322;18.784;2023-11-19T08:25:38;1006.00;;;4.14;70.51
48810;BME280;40070;47.322;18.784;2023-11-19T08:27:41;1005.79;;;4.21;70.72
48810;BME280;40070;47.322;18.784;2023-11-19T08:29:43;1005.71;;;4.22;70.59
48810;BME280;40070;47.322;18.784;2023-11-19T08:31:46;1005.68;;;4.31;70.84
48810;BME280;40070;47.322;18.784;2023-11-19T08:33:48;1005.67;;;4.19;70.98
48810;BME280;40070;47.322;18.784;2023-11-19T08:35:51;1005.79;;;4.25;71.36
48810;BME280;40070;47.322;18.784;2023-11-19T08:37:53;1005.94;;;4.08;71.89
48810;BME280;40070;47.322;18.784;2023-11-19T08:39:56;1006.02;;;4.24;72.03
48810;BME280;40070;47.322;18.784;2023-11-19T08:41:58;1006.12;;;4.32;71.36
48810;BME280;40070;47.322;18.784;2023-11-19T08:44:01;1006.08;;;4.36;71.35
48810;BME280;40070;47.322;18.784;2023-11-19T08:46:04;1006.03;;;4.37;71.30
48810;BME280;40070;47.322;18.784;2023-11-19T08:48:11;1005.81;;;4.57;71.19
48810;BME280;40070;47.322;18.784;2023-11-19T08:50:13;1005.67;;;4.34;71.89
48810;BME280;40070;47.322;18.784;2023-11-19T08:52:16;1005.67;;;4.43;71.44
48810;BME280;40070;47.322;18.784;2023-11-19T08:54:18;1005.76;;;4.41;71.34
48810;BME280;40070;47.322;18.784;2023-11-19T08:56:21;1005.84;;;4.57;71.35
48810;BME280;40070;47.322;18.784;2023-11-19T08:58:23;1005.89;;;4.66;70.46
48810;BME280;40070;47.322;18.784;2023-11-19T09:00:26;1005.79;;;4.67;70.49
48810;BME280;40070;47.322;18.784;2023-11-19T09:02:28;1005.74;;;4.50;70.84
48810;BME280;40070;47.322;18.784;2023-11-19T09:04:31;1005.87;;;4.47;71.07
48810;BME280;40070;47.322;18.784;2023-11-19T09:06:34;1005.87;;;4.77;70.44
48810;BME280;40070;47.322;18.784;2023-11-19T09:08:38;1005.76;;;4.70;70.29
48810;BME280;40070;47.322;18.784;2023-11-19T09:10:40;1005.75;;;4.74;70.72
48810;BME280;40070;47.322;18.784;2023-11-19T09:12:43;1005.79;;;4.52;71.10
48810;BME280;40070;47.322;18.784;2023-11-19T09:14:45;1005.88;;;4.72;70.80
48810;BME280;40070;47.322;18.784;2023-11-19T09:16:47;1005.89;;;4.79;70.64
48810;BME280;40070;47.322;18.784;2023-11-19T09:18:50;1005.95;;;4.98;70.16
48810;BME280;40070;47.322;18.784;2023-11-19T09:20:52;1005.83;;;4.92;70.28
48810;BME280;40070;47.322;18.784;2023-11-19T09:22:55;1005.74;;;4.94;70.34
48810;BME280;40070;47.322;18.784;2023-11-19T09:24:57;1005.62;;;5.07;70.05
48810;BME280;40070;47.322;18.784;2023-11-19T09:27:00;1005.66;;;5.22;69.55
48810;BME280;40070;47.322;18.784;2023-11-19T09:29:02;1005.62;;;5.12;69.71
48810;BME280;40070;47.322;18.784;2023-11-19T09:31:14;1005.68;;;5.26;69.47
48810;BME280;40070;47.322;18.784;2023-11-19T09:33:17;1005.64;;;5.07;69.88
48810;BME280;40070;47.322;18.784;2023-11-19T09:35:19;1005.70;;;5.30;69.51
48810;BME280;40070;47.322;18.784;2023-11-19T09:37:21;1005.68;;;5.39;68.84
48810;BME280;40070;47.322;18.784;2023-11-19T09:39:24;1005.69;;;5.55;68.50
48810;BME280;40070;47.322;18.784;2023-11-19T09:41:26;1005.61;;;5.26;69.55
48810;BME280;40070;47.322;18.784;2023-11-19T09:43:29;1005.66;;;5.33;69.68
48810;BME280;40070;47.322;18.784;2023-11-19T09:45:32;1005.60;;;5.36;69.59
48810;BME280;40070;47.322;18.784;2023-11-19T09:47:45;1005.54;;;5.43;69.11
48810;BME280;40070;47.322;18.784;2023-11-19T09:49:47;1005.43;;;5.56;68.85
48810;BME280;40070;47.322;18.784;2023-11-19T09:51:51;1005.38;;;5.79;67.64
48810;BME280;40070;47.322;18.784;2023-11-19T09:53:53;1005.34;;;5.79;67.77
48810;BME280;40070;47.322;18.784;2023-11-19T09:55:56;1005.44;;;5.65;68.39
48810;BME280;40070;47.322;18.784;2023-11-19T09:57:59;1005.42;;;5.64;68.68
48810;BME280;40070;47.322;18.784;2023-11-19T10:00:03;1005.42;;;5.82;68.24
48810;BME280;40070;47.322;18.784;2023-11-19T10:02:07;1005.31;;;5.66;68.50
48810;BME280;40070;47.322;18.784;2023-11-19T10:04:09;1005.26;;;5.71;68.56
48810;BME280;40070;47.322;18.784;2023-11-19T10:06:12;1005.27;;;5.74;68.41
48810;BME280;40070;47.322;18.784;2023-11-19T10:08:16;1005.20;;;5.71;68.28
48810;BME280;40070;47.322;18.784;2023-11-19T10:10:19;1005.19;;;5.67;68.50
48810;BME280;40070;47.322;18.784;2023-11-19T10:12:21;1005.24;;;5.66;68.72
48810;BME280;40070;47.322;18.784;2023-11-19T10:14:24;1005.26;;;5.67;68.67
48810;BME280;40070;47.322;18.784;2023-11-19T10:16:29;1005.26;;;5.76;67.97
48810;BME280;40070;47.322;18.784;2023-11-19T10:18:32;1005.21;;;5.88;67.93
48810;BME280;40070;47.322;18.784;2023-11-19T10:20:37;1005.16;;;5.78;68.39
48810;BME280;40070;47.322;18.784;2023-11-19T10:22:41;1005.05;;;5.77;68.65
48810;BME280;40070;47.322;18.784;2023-11-19T10:24:44;1005.04;;;5.66;69.05
48810;BME280;40070;47.322;18.784;2023-11-19T10:26:46;1004.98;;;5.68;69.15
48810;BME280;40070;47.322;18.784;2023-11-19T10:28:49;1004.86;;;5.73;69.37
48810;BME280;40070;47.322;18.784;2023-11-19T10:30:52;1004.73;;;5.95;68.83
48810;BME280;40070;47.322;18.784;2023-11-19T10:33:08;1004.79;;;5.70;69.37
48810;BME280;40070;47.322;18.784;2023-11-19T10:35:10;1004.82;;;5.64;69.82
48810;BME280;40070;47.322;18.784;2023-11-19T10:37:27;1004.85;;;5.78;69.51
48810;BME280;40070;47.322;18.784;2023-11-19T10:39:51;1004.75;;;5.70;69.88
48810;BME280;40070;47.322;18.784;2023-11-19T10:41:44;1004.63;;;5.91;69.72
48810;BME280;40070;47.322;18.784;2023-11-19T10:43:46;1004.55;;;5.87;69.87
48810;BME280;40070;47.322;18.784;2023-11-19T10:45:49;1004.61;;;5.96;69.40
48810;BME280;40070;47.322;18.784;2023-11-19T10:47:51;1004.70;;;5.86;69.19
48810;BME280;40070;47.322;18.784;2023-11-19T10:49:54;1004.73;;;5.86;69.63
48810;BME280;40070;47.322;18.784;2023-11-19T10:51:57;1004.79;;;5.77;69.81
48810;BME280;40070;47.322;18.784;2023-11-19T10:54:06;1004.70;;;5.84;69.90
48810;BME280;40070;47.322;18.784;2023-11-19T10:56:11;1004.56;;;5.92;69.73
48810;BME280;40070;47.322;18.784;2023-11-19T10:58:15;1004.57;;;6.05;69.61